Time;durP1;ratioP1;P1;durP2;ratioP2;P2;SDS_P1;SDS_P2;PMS_P1;PMS_P2;Temp;Humidity;BMP_temperature;BMP_pressure;BME280_temperature;BME280_humidity;BME280_pressure;Samples;Min_cycle;Max_cycle;Signal;HPM_P1;HPM_P2
2022/09/16 00:01:14;;;;;;;;;;;;;;;24.43;58.89;99908.13;7407090;19;1784;-59
2022/09/16 00:03:42;;;;;;;;;;;;;;;24.41;59.07;99912.91;7408737;19;1645;-59
2022/09/16 00:06:18;;;;;;;;;;;;;;;24.40;59.11;99908.53;7408958;19;1000;-59
2022/09/16 00:08:46;;;;;;;;;;;;;;;24.43;59.10;99908.13;7409103;19;1067;-59
2022/09/16 00:11:14;;;;;;;;;;;;;;;24.38;59.10;99905.19;7408728;19;1776;-70
2022/09/16 00:13:43;;;;;;;;;;;;;;;24.38;59.28;99905.19;7406341;19;1513;-70
2022/09/16 00:16:17;;;;;;;;;;;;;;;24.41;59.34;99894.84;7408519;19;1615;-70
2022/09/16 00:18:46;;;;;;;;;;;;;;;24.35;59.26;99892.06;7407978;19;1012;-70
2022/09/16 00:21:14;;;;;;;;;;;;;;;24.40;59.38;99900.44;7406330;19;1694;-70
2022/09/16 00:23:42;;;;;;;;;;;;;;;24.37;59.16;99896.25;7407331;19;1522;-70
2022/09/16 00:26:11;;;;;;;;;;;;;;;24.39;58.99;99882.53;7405648;19;1315;-59
2022/09/16 00:28:39;;;;;;;;;;;;;;;24.37;59.36;99884.59;7405778;19;1441;-60
2022/09/16 00:31:07;;;;;;;;;;;;;;;24.36;59.11;99882.94;7405898;19;1169;-70
2022/09/16 00:33:38;;;;;;;;;;;;;;;24.40;59.41;99905.84;7405655;19;1451;-70
2022/09/16 00:36:07;;;;;;;;;;;;;;;24.35;59.09;99892.06;7408127;19;1310;-70
2022/09/16 00:38:36;;;;;;;;;;;;;;;24.35;59.30;99892.06;7406227;19;1845;-70
2022/09/16 00:41:04;;;;;;;;;;;;;;;24.38;59.01;99891.69;7405194;19;1639;-59
2022/09/16 00:43:48;;;;;;;;;;;;;;;24.44;59.11;99907.13;7407329;19;1377;-70
2022/09/16 00:46:18;;;;;;;;;;;;;;;24.36;59.35;99902.66;7406773;19;1617;-70
2022/09/16 00:48:49;;;;;;;;;;;;;;;24.37;59.29;99890.84;7406312;19;1625;-60
2022/09/16 00:51:19;;;;;;;;;;;;;;;24.40;59.18;99893.16;7405858;19;1694;-59
2022/09/16 00:53:50;;;;;;;;;;;;;;;24.41;59.42;99893.97;7403372;19;1583;-60
2022/09/16 00:56:22;;;;;;;;;;;;;;;24.40;59.37;99906.66;7403978;19;1782;-60
2022/09/16 00:58:53;;;;;;;;;;;;;;;24.37;59.08;99892.69;7404161;19;1859;-59
2022/09/16 01:01:21;;;;;;;;;;;;;;;24.41;59.42;99896.69;7405983;19;1382;-60
2022/09/16 01:03:55;;;;;;;;;;;;;;;24.37;59.34;99895.41;7405833;19;1711;-59
2022/09/16 01:06:24;;;;;;;;;;;;;;;24.41;59.32;99910.19;7407173;19;1576;-60
2022/09/16 01:08:53;;;;;;;;;;;;;;;24.35;59.10;99889.34;7406690;19;1180;-69
2022/09/16 01:11:21;;;;;;;;;;;;;;;24.36;59.39;99891.03;7403692;19;1895;-69
2022/09/16 01:13:50;;;;;;;;;;;;;;;24.40;59.35;99889.63;7405532;19;1372;-60
2022/09/16 01:16:23;;;;;;;;;;;;;;;24.35;59.25;99898.31;7404625;19;1326;-60
2022/09/16 01:18:59;;;;;;;;;;;;;;;24.38;59.08;99895.22;7403749;19;2010;-70
2022/09/16 01:21:33;;;;;;;;;;;;;;;24.36;59.21;99904.53;7405744;19;980;-70
2022/09/16 01:24:20;;;;;;;;;;;;;;;24.37;59.40;99906.22;7402745;19;1630;-70
2022/09/16 01:26:57;;;;;;;;;;;;;;;24.34;59.50;99909.31;7405280;19;1551;-70
2022/09/16 01:29:37;;;;;;;;;;;;;;;24.38;59.15;99914.13;7404828;19;1524;-60
2022/09/16 01:32:11;;;;;;;;;;;;;;;24.37;59.48;99922.41;7404520;19;1498;-59
2022/09/16 01:34:49;;;;;;;;;;;;;;;24.33;59.47;99904.91;7406497;19;929;-70
2022/09/16 01:37:19;;;;;;;;;;;;;;;24.35;59.21;99908.25;7403698;19;1860;-70
2022/09/16 01:39:51;;;;;;;;;;;;;;;24.33;59.30;99900.38;7404372;19;1434;-59
2022/09/16 01:42:23;;;;;;;;;;;;;;;24.34;59.24;99903.91;7402915;19;1732;-69
2022/09/16 01:44:55;;;;;;;;;;;;;;;24.32;59.13;99908.66;7404845;19;1685;-70
2022/09/16 01:47:32;;;;;;;;;;;;;;;24.35;59.44;99927.19;7403833;19;1618;-59
2022/09/16 01:50:03;;;;;;;;;;;;;;;24.34;59.53;99922.81;7404062;19;1540;-59
2022/09/16 01:52:38;;;;;;;;;;;;;;;24.37;59.11;99927.81;7404380;19;1063;-59
2022/09/16 01:55:09;;;;;;;;;;;;;;;24.37;59.48;99922.41;7404910;19;1749;-59
2022/09/16 01:57:40;;;;;;;;;;;;;;;24.34;59.53;99914.72;7403937;19;1836;-60
2022/09/16 02:00:09;;;;;;;;;;;;;;;24.39;59.49;99925.75;7403853;19;1709;-59
2022/09/16 02:02:42;;;;;;;;;;;;;;;24.35;59.35;99913.66;7392827;19;1611;-60
2022/09/16 02:05:13;;;;;;;;;;;;;;;24.32;59.38;99908.66;7403059;19;1496;-60
2022/09/16 02:07:44;;;;;;;;;;;;;;;24.32;59.27;99908.66;7404822;19;1520;-60
2022/09/16 02:10:16;;;;;;;;;;;;;;;24.37;59.23;99927.81;7405601;19;971;-60
2022/09/16 02:12:46;;;;;;;;;;;;;;;24.33;59.43;99921.13;7405901;19;914;-70
2022/09/16 02:15:21;;;;;;;;;;;;;;;24.28;59.49;99908.19;7405023;19;1626;-60
2022/09/16 02:17:54;;;;;;;;;;;;;;;24.31;59.31;99912.38;7402664;19;1871;-60
2022/09/16 02:20:25;;;;;;;;;;;;;;;24.31;59.42;99915.09;7400148;19;1521;-60
2022/09/16 02:22:57;;;;;;;;;;;;;;;24.29;59.54;99911.72;7404699;19;977;-60
2022/09/16 02:25:26;;;;;;;;;;;;;;;24.35;59.30;99924.47;7404532;19;996;-60
2022/09/16 02:27:55;;;;;;;;;;;;;;;24.31;59.61;99906.97;7403751;19;1666;-60
2022/09/16 02:30:24;;;;;;;;;;;;;;;24.31;59.59;99917.78;7403986;19;1663;-60
2022/09/16 02:32:58;;;;;;;;;;;;;;;24.30;59.27;99924.22;7403058;19;1519;-60
2022/09/16 02:35:28;;;;;;;;;;;;;;;24.30;59.61;99925.06;7404319;19;910;-60
2022/09/16 02:37:58;;;;;;;;;;;;;;;24.32;59.38;99924.88;7401500;19;1834;-69
2022/09/16 02:40:28;;;;;;;;;;;;;;;24.35;59.42;99927.19;7404311;19;1492;-70
2022/09/16 02:42:58;;;;;;;;;;;;;;;24.31;59.41;99934.00;7403909;19;1634;-70
2022/09/16 02:45:28;;;;;;;;;;;;;;;24.30;59.47;99926.94;7403724;19;955;-70
2022/09/16 02:48:02;;;;;;;;;;;;;;;24.29;59.54;99920.69;7403133;19;1706;-70
2022/09/16 02:50:34;;;;;;;;;;;;;;;24.34;59.50;99933.63;7403437;19;1752;-70
2022/09/16 02:53:04;;;;;;;;;;;;;;;24.31;59.39;99942.09;7403254;19;1474;-69
2022/09/16 02:55:37;;;;;;;;;;;;;;;24.29;59.42;99952.25;7412185;19;983;-70
2022/09/16 02:58:05;;;;;;;;;;;;;;;24.34;59.53;99944.44;7410283;19;1853;-69
2022/09/16 03:00:35;;;;;;;;;;;;;;;24.30;59.63;99943.16;7409806;19;1705;-69
2022/09/16 03:03:06;;;;;;;;;;;;;;;24.29;59.37;99939.63;7406776;19;1705;-70
2022/09/16 03:05:34;;;;;;;;;;;;;;;24.30;59.61;99932.34;7409239;19;1630;-70
2022/09/16 03:08:05;;;;;;;;;;;;;;;24.31;59.63;99942.09;7410919;19;1528;-69
2022/09/16 03:10:38;;;;;;;;;;;;;;;24.31;59.65;99944.81;7411842;19;945;-69
2022/09/16 03:13:10;;;;;;;;;;;;;;;24.28;59.30;99937.94;7410443;19;1646;-70
2022/09/16 03:15:45;;;;;;;;;;;;;;;24.33;59.53;99931.94;7410355;19;1905;-60
2022/09/16 03:18:38;;;;;;;;;;;;;;;24.29;59.56;99933.34;7407579;19;1853;-70
2022/09/16 03:21:12;;;;;;;;;;;;;;;24.28;59.65;99926.28;7407927;19;1791;-70
2022/09/16 03:23:44;;;;;;;;;;;;;;;24.27;59.37;99921.91;7406703;19;1626;-70
2022/09/16 03:26:18;;;;;;;;;;;;;;;24.25;59.63;99913.97;7409702;19;1800;-70
2022/09/16 03:28:49;;;;;;;;;;;;;;;24.25;59.73;99918.56;7408441;19;1363;-69
2022/09/16 03:31:20;;;;;;;;;;;;;;;24.26;59.53;99920.25;7411174;19;1036;-70
2022/09/16 03:33:51;;;;;;;;;;;;;;;24.27;59.52;99919.19;7408447;19;1764;-70
2022/09/16 03:36:25;;;;;;;;;;;;;;;24.27;59.51;99916.50;7409911;19;1882;-70
2022/09/16 03:38:55;;;;;;;;;;;;;;;24.30;59.33;99913.41;7409178;19;1856;-70
2022/09/16 03:41:23;;;;;;;;;;;;;;;24.30;59.73;99921.53;7407614;19;1788;-70
2022/09/16 03:43:55;;;;;;;;;;;;;;;24.31;59.55;99917.78;7406932;19;1527;-70
2022/09/16 03:46:23;;;;;;;;;;;;;;;24.29;59.57;99919.84;7407556;19;1634;-70
2022/09/16 03:48:52;;;;;;;;;;;;;;;24.29;59.60;99933.34;7408510;19;953;-70
2022/09/16 03:51:23;;;;;;;;;;;;;;;24.27;59.46;99911.09;7407221;19;1702;-70
2022/09/16 03:53:51;;;;;;;;;;;;;;;24.30;59.63;99919.66;7407616;19;1615;-70
2022/09/16 03:56:19;;;;;;;;;;;;;;;24.30;59.50;99927.75;7407882;19;1611;-70
2022/09/16 03:58:48;;;;;;;;;;;;;;;24.33;59.45;99938.19;7406680;19;1857;-70
2022/09/16 04:01:17;;;;;;;;;;;;;;;24.28;59.64;99937.09;7408384;19;1382;-70
2022/09/16 04:03:45;;;;;;;;;;;;;;;24.28;59.57;99924.41;7407491;19;1539;-70
2022/09/16 04:06:13;;;;;;;;;;;;;;;24.26;59.50;99918.38;7406899;19;1619;-70
2022/09/16 04:08:46;;;;;;;;;;;;;;;24.28;59.40;99929.00;7407682;19;1532;-70
2022/09/16 04:11:14;;;;;;;;;;;;;;;24.27;59.38;99919.19;7407850;19;1571;-70
2022/09/16 04:13:43;;;;;;;;;;;;;;;24.30;59.68;99925.06;7407016;19;1583;-70
2022/09/16 04:16:11;;;;;;;;;;;;;;;24.29;59.68;99927.94;7407895;19;1540;-70
2022/09/16 04:18:39;;;;;;;;;;;;;;;24.29;59.56;99933.34;7405145;19;1862;-70
2022/09/16 04:21:07;;;;;;;;;;;;;;;24.29;59.46;99944.16;7407690;19;1528;-70
2022/09/16 04:23:36;;;;;;;;;;;;;;;24.29;59.49;99933.34;7407295;19;1004;-70
2022/09/16 04:26:07;;;;;;;;;;;;;;;24.30;59.47;99935.88;7408473;19;1651;-70
2022/09/16 04:28:35;;;;;;;;;;;;;;;24.34;59.66;99945.25;7408050;19;1666;-70
2022/09/16 04:31:04;;;;;;;;;;;;;;;24.32;59.51;99957.31;7404063;19;1616;-70
2022/09/16 04:33:34;;;;;;;;;;;;;;;24.33;59.63;99954.41;7408138;19;1777;-70
2022/09/16 04:36:05;;;;;;;;;;;;;;;24.31;59.62;99955.59;7408329;19;1871;-70
2022/09/16 04:38:34;;;;;;;;;;;;;;;24.34;59.49;99975.00;7407950;19;1838;-70
2022/09/16 04:41:02;;;;;;;;;;;;;;;24.28;59.54;99966.81;7404408;19;1621;-70
2022/09/16 04:43:33;;;;;;;;;;;;;;;24.33;59.32;99969.75;7407406;19;1519;-60
2022/09/16 04:46:02;;;;;;;;;;;;;;;24.34;59.58;99988.50;7407574;19;1575;-60
2022/09/16 04:48:30;;;;;;;;;;;;;;;24.38;59.47;99995.19;7407212;19;1547;-60
2022/09/16 04:51:03;;;;;;;;;;;;;;;24.32;59.53;99984.31;7408238;19;1005;-60
2022/09/16 04:53:32;;;;;;;;;;;;;;;24.31;59.56;99977.22;7405302;19;1693;-60
2022/09/16 04:56:04;;;;;;;;;;;;;;;24.34;59.45;99990.38;7406197;19;1630;-60
2022/09/16 04:58:35;;;;;;;;;;;;;;;24.34;59.49;99977.69;7404923;19;1849;-60
2022/09/16 05:01:11;;;;;;;;;;;;;;;24.36;59.43;99991.84;7406496;19;1607;-60
2022/09/16 05:03:39;;;;;;;;;;;;;;;24.37;59.57;99971.06;7406947;19;1824;-60
2022/09/16 05:06:08;;;;;;;;;;;;;;;24.31;59.53;99967.28;7407330;19;992;-60
2022/09/16 05:08:37;;;;;;;;;;;;;;;24.36;59.25;99969.41;7403625;19;1768;-60
2022/09/16 05:11:06;;;;;;;;;;;;;;;24.38;59.16;99978.16;7406164;19;1650;-60
2022/09/16 05:13:37;;;;;;;;;;;;;;;24.39;59.45;99986.06;7406729;19;1626;-60
2022/09/16 05:16:06;;;;;;;;;;;;;;;24.41;59.39;99980.47;7405925;19;1645;-59
2022/09/16 05:18:35;;;;;;;;;;;;;;;24.38;59.54;99984.38;7406299;19;1866;-60
2022/09/16 05:21:05;;;;;;;;;;;;;;;24.42;59.40;99988.38;7406327;19;1780;-60
2022/09/16 05:23:33;;;;;;;;;;;;;;;24.42;59.26;99985.69;7403280;19;1762;-60
2022/09/16 05:26:04;;;;;;;;;;;;;;;24.42;59.49;99996.50;7406044;19;1590;-60
2022/09/16 05:28:32;;;;;;;;;;;;;;;24.44;59.31;99993.59;7406389;19;949;-59
2022/09/16 05:31:12;;;;;;;;;;;;;;;24.43;59.22;99991.91;7407218;19;2073;-60
2022/09/16 05:33:41;;;;;;;;;;;;;;;24.40;59.45;99984.19;7404959;19;1796;-59
2022/09/16 05:36:10;;;;;;;;;;;;;;;24.48;59.34;100004.88;7406579;19;1017;-60
2022/09/16 05:38:38;;;;;;;;;;;;;;;24.43;59.35;99994.63;7405961;19;1857;-60
2022/09/16 05:41:07;;;;;;;;;;;;;;;24.56;59.16;100004.78;7403348;19;1694;-60
2022/09/16 05:43:35;;;;;;;;;;;;;;;24.52;58.99;99990.81;7406757;19;989;-60
2022/09/16 05:46:04;;;;;;;;;;;;;;;24.50;59.02;100000.13;7402138;19;1725;-59
2022/09/16 05:48:35;;;;;;;;;;;;;;;24.55;59.01;100008.50;7404694;19;1679;-60
2022/09/16 05:51:04;;;;;;;;;;;;;;;24.55;58.90;100040.94;7401712;19;1004;-59
2022/09/16 05:53:33;;;;;;;;;;;;;;;24.60;59.00;100043.94;7404175;19;1592;-59
2022/09/16 05:56:02;;;;;;;;;;;;;;;24.61;59.03;100027.53;7403985;19;1236;-70
2022/09/16 05:58:31;;;;;;;;;;;;;;;24.57;58.74;100028.94;7404764;19;1838;-70
2022/09/16 06:01:00;;;;;;;;;;;;;;;24.62;58.98;100022.94;7403502;19;1607;-70
2022/09/16 06:03:28;;;;;;;;;;;;;;;24.58;58.96;100022.47;7400291;19;1686;-70
2022/09/16 06:06:03;;;;;;;;;;;;;;;24.57;58.92;100037.03;7405545;19;996;-70
2022/09/16 06:08:33;;;;;;;;;;;;;;;24.57;58.85;100030.78;7404578;19;1260;-70
2022/09/16 06:11:02;;;;;;;;;;;;;;;24.59;58.94;100039.53;7404934;19;1776;-70
2022/09/16 06:13:30;;;;;;;;;;;;;;;24.58;58.85;100036.00;7402153;19;1778;-70
2022/09/16 06:15:59;;;;;;;;;;;;;;;24.60;58.87;100030.41;7404851;19;1630;-70
2022/09/16 06:18:28;;;;;;;;;;;;;;;24.61;59.00;100053.69;7404253;19;1859;-70
2022/09/16 06:20:57;;;;;;;;;;;;;;;24.60;58.96;100042.06;7405013;19;1317;-70
2022/09/16 06:23:27;;;;;;;;;;;;;;;24.57;58.99;100041.59;7403424;19;1291;-59
2022/09/16 06:26:01;;;;;;;;;;;;;;;24.58;59.00;100049.50;7401129;19;1790;-70
2022/09/16 06:28:29;;;;;;;;;;;;;;;24.55;59.15;100033.69;7407337;19;1360;-70
2022/09/16 06:31:04;;;;;;;;;;;;;;;24.56;59.21;100042.63;7412373;19;988;-59
2022/09/16 06:33:32;;;;;;;;;;;;;;;24.55;58.95;100022.88;7411293;19;1764;-70
2022/09/16 06:36:04;;;;;;;;;;;;;;;24.57;59.08;100050.56;7412373;19;934;-57
2022/09/16 06:38:35;;;;;;;;;;;;;;;24.59;59.21;100050.34;7412506;19;1860;-59
2022/09/16 06:41:03;;;;;;;;;;;;;;;24.58;59.00;100037.88;7409739;19;1736;-59
2022/09/16 06:43:32;;;;;;;;;;;;;;;24.57;59.07;100047.84;7412073;19;1579;-59
2022/09/16 06:46:01;;;;;;;;;;;;;;;24.59;59.13;100037.69;7411444;19;1622;-60
2022/09/16 06:48:29;;;;;;;;;;;;;;;24.58;59.17;100038.69;7411769;19;1626;-59
2022/09/16 06:51:01;;;;;;;;;;;;;;;24.60;59.20;100035.81;7411979;19;1024;-59
2022/09/16 06:53:29;;;;;;;;;;;;;;;24.59;58.99;100034.13;7407746;19;1752;-60
2022/09/16 06:56:01;;;;;;;;;;;;;;;24.60;59.12;100033.13;7411016;19;1539;-60
2022/09/16 06:58:31;;;;;;;;;;;;;;;24.64;59.29;100052.50;7411328;19;1846;-60
2022/09/16 07:00:59;;;;;;;;;;;;;;;24.60;59.26;100042.06;7410303;19;1091;-59
2022/09/16 07:03:27;;;;;;;;;;;;;;;24.58;59.19;100022.47;7405620;19;1781;-59
2022/09/16 07:06:00;;;;;;;;;;;;;;;24.61;59.02;100034.78;7411281;19;1083;-59
2022/09/16 07:08:30;;;;;;;;;;;;;;;24.61;59.17;100051.84;7409677;19;1698;-70
2022/09/16 07:11:02;;;;;;;;;;;;;;;24.61;58.92;100051.00;7410956;19;1574;-70
2022/09/16 07:13:31;;;;;;;;;;;;;;;24.61;59.06;100061.81;7405896;19;1665;-70
2022/09/16 07:16:01;;;;;;;;;;;;;;;24.60;59.12;100042.06;7410658;19;1567;-70
2022/09/16 07:18:29;;;;;;;;;;;;;;;24.59;58.92;100056.63;7411219;19;989;-70
2022/09/16 07:21:02;;;;;;;;;;;;;;;24.60;59.10;100066.38;7405925;19;1849;-70
2022/09/16 07:23:31;;;;;;;;;;;;;;;24.63;58.91;100081.41;7405758;19;1792;-70
2022/09/16 07:26:07;;;;;;;;;;;;;;;24.61;59.22;100059.97;7409605;19;1568;-59
2022/09/16 07:28:36;;;;;;;;;;;;;;;24.67;59.03;100084.53;7408772;19;960;-59
2022/09/16 07:31:04;;;;;;;;;;;;;;;24.68;59.09;100075.41;7410331;19;1639;-59
2022/09/16 07:33:33;;;;;;;;;;;;;;;24.67;59.01;100079.13;7410110;19;1662;-59
2022/09/16 07:36:02;;;;;;;;;;;;;;;24.64;59.17;100057.91;7409186;19;1698;-70
2022/09/16 07:38:31;;;;;;;;;;;;;;;24.67;59.12;100071.03;7409600;19;1551;-70
2022/09/16 07:41:08;;;;;;;;;;;;;;;24.65;58.84;100056.88;7403218;19;1857;-59
2022/09/16 07:43:36;;;;;;;;;;;;;;;24.65;58.97;100071.25;7406327;19;1530;-70
2022/09/16 07:46:05;;;;;;;;;;;;;;;24.65;59.14;100060.44;7409824;19;1644;-70
2022/09/16 07:48:34;;;;;;;;;;;;;;;24.67;58.87;100076.44;7407331;19;1457;-70
2022/09/16 07:51:03;;;;;;;;;;;;;;;24.69;58.94;100082.50;7407607;19;1752;-70
2022/09/16 07:53:32;;;;;;;;;;;;;;;24.72;59.17;100066.72;7407657;19;1292;-70
2022/09/16 07:56:03;;;;;;;;;;;;;;;24.75;58.96;100073.63;7408687;19;1355;-59
2022/09/16 07:58:34;;;;;;;;;;;;;;;24.73;59.16;100071.13;7408794;19;1721;-70
2022/09/16 08:01:02;;;;;;;;;;;;;;;24.76;58.93;100086.13;7406998;19;1841;-70
2022/09/16 08:03:31;;;;;;;;;;;;;;;24.72;59.11;100061.31;7404625;19;1827;-60
2022/09/16 08:06:02;;;;;;;;;;;;;;;24.73;58.89;100062.16;7408446;19;1591;-59
2022/09/16 08:08:30;;;;;;;;;;;;;;;24.76;58.80;100056.38;7407405;19;996;-59
2022/09/16 08:10:59;;;;;;;;;;;;;;;24.75;59.15;100049.28;7405772;19;1635;-60
2022/09/16 08:13:28;;;;;;;;;;;;;;;24.81;58.76;100065.59;7401733;19;1395;-60
2022/09/16 08:16:01;;;;;;;;;;;;;;;24.77;58.81;100045.38;7406409;19;1270;-59
2022/09/16 08:18:30;;;;;;;;;;;;;;;24.75;58.80;100043.88;7407218;19;1547;-59
2022/09/16 08:21:00;;;;;;;;;;;;;;;24.80;59.00;100052.25;7405430;19;1869;-59
2022/09/16 08:23:28;;;;;;;;;;;;;;;24.76;59.08;100046.41;7405516;19;1488;-59
2022/09/16 08:26:00;;;;;;;;;;;;;;;24.76;59.05;100035.56;7408432;19;1741;-70
2022/09/16 08:28:29;;;;;;;;;;;;;;;24.80;58.91;100044.16;7407608;19;1685;-60
2022/09/16 08:31:00;;;;;;;;;;;;;;;24.84;58.86;100037.31;7403107;19;1590;-59
2022/09/16 08:33:29;;;;;;;;;;;;;;;24.88;58.97;100049.44;7408069;19;988;-65
2022/09/16 08:36:01;;;;;;;;;;;;;;;24.91;59.04;100042.78;7406233;19;1186;-65
2022/09/16 08:38:29;;;;;;;;;;;;;;;24.90;59.04;100038.44;7406774;19;1629;-66
2022/09/16 08:41:01;;;;;;;;;;;;;;;24.94;58.86;100037.00;7402136;19;1858;-71
2022/09/16 08:43:35;;;;;;;;;;;;;;;24.91;59.36;100032.84;7402913;19;1449;-68
2022/09/16 08:46:09;;;;;;;;;;;;;;;24.91;59.26;100050.91;7406067;19;1214;-57
2022/09/16 08:48:43;;;;;;;;;;;;;;;24.89;59.38;100051.13;7401896;19;1678;-67
2022/09/16 08:51:14;;;;;;;;;;;;;;;24.92;59.30;100049.91;7403471;19;1333;-57
2022/09/16 08:53:44;;;;;;;;;;;;;;;24.93;59.20;100074.06;7403772;19;1434;-67
2022/09/16 08:56:14;;;;;;;;;;;;;;;24.93;59.09;100046.16;7407070;19;1046;-68
2022/09/16 08:58:45;;;;;;;;;;;;;;;24.92;59.15;100049.91;7406472;19;1026;-57
2022/09/16 09:01:20;;;;;;;;;;;;;;;24.95;58.78;100042.25;7404744;19;1853;-68
2022/09/16 09:03:49;;;;;;;;;;;;;;;24.90;58.57;100060.91;7407586;19;1227;-68
2022/09/16 09:06:26;;;;;;;;;;;;;;;24.91;58.63;100053.63;7404334;19;1627;-57
2022/09/16 09:08:58;;;;;;;;;;;;;;;24.93;58.85;100044.31;7405094;19;1588;-57
2022/09/16 09:11:31;;;;;;;;;;;;;;;24.94;58.80;100037.00;7406449;19;1567;-68
2022/09/16 09:14:08;;;;;;;;;;;;;;;24.91;59.14;100013.91;7404711;19;1390;-68
2022/09/16 09:16:45;;;;;;;;;;;;;;;24.94;58.82;100040.56;7405941;19;1625;-68
2022/09/16 09:19:23;;;;;;;;;;;;;;;24.92;58.97;100022.84;7403568;19;1853;-67
2022/09/16 09:21:56;;;;;;;;;;;;;;;24.94;58.99;100026.19;7406197;19;1283;-67
2022/09/16 09:24:30;;;;;;;;;;;;;;;25.02;58.82;100043.13;7404829;19;1623;-67
2022/09/16 09:27:00;;;;;;;;;;;;;;;25.02;58.79;100029.59;7404188;19;1533;-57
2022/09/16 09:29:40;;;;;;;;;;;;;;;25.02;58.72;100029.59;7404316;19;1474;-57
2022/09/16 09:32:17;;;;;;;;;;;;;;;25.06;58.66;100034.63;7401646;19;1337;-57
2022/09/16 09:34:53;;;;;;;;;;;;;;;24.98;59.04;100022.06;7403977;19;1359;-57
2022/09/16 09:37:31;;;;;;;;;;;;;;;25.03;58.62;100025.06;7403526;19;1339;-67
2022/09/16 09:40:05;;;;;;;;;;;;;;;25.05;58.55;100014.88;7403753;19;1846;-57
2022/09/16 09:42:36;;;;;;;;;;;;;;;25.03;58.12;100011.53;7406535;19;1788;-57
2022/09/16 09:45:06;;;;;;;;;;;;;;;25.10;57.76;100031.34;7405712;19;1776;-58
2022/09/16 09:47:41;;;;;;;;;;;;;;;25.08;57.73;100016.34;7405465;19;1666;-58
2022/09/16 09:50:20;;;;;;;;;;;;;;;25.06;57.70;100008.41;7404714;19;1539;-58
2022/09/16 09:52:55;;;;;;;;;;;;;;;25.10;57.63;100014.28;7405215;19;1614;-58
2022/09/16 09:55:24;;;;;;;;;;;;;;;25.16;57.44;100029.72;7405311;19;1562;-57
2022/09/16 09:57:59;;;;;;;;;;;;;;;25.12;57.10;100023.03;7405436;19;1621;-58
2022/09/16 10:00:27;;;;;;;;;;;;;;;25.14;57.45;100037.22;7404363;19;1857;-58
2022/09/16 10:03:03;;;;;;;;;;;;;;;25.10;57.15;100025.09;7401356;19;1693;-58
2022/09/16 10:05:32;;;;;;;;;;;;;;;25.12;57.44;100014.91;7404700;19;1776;-57
2022/09/16 10:08:04;;;;;;;;;;;;;;;25.09;57.54;100023.41;7402420;19;1776;-57
2022/09/16 10:10:34;;;;;;;;;;;;;;;25.09;57.15;100013.44;7402068;19;1249;-57
2022/09/16 10:13:09;;;;;;;;;;;;;;;25.11;57.16;100032.16;7404515;19;1602;-57
2022/09/16 10:15:38;;;;;;;;;;;;;;;25.09;57.18;100023.41;7405707;19;1060;-57
2022/09/16 10:18:14;;;;;;;;;;;;;;;25.15;57.14;100036.19;7404777;19;1661;-57
2022/09/16 10:20:44;;;;;;;;;;;;;;;25.10;57.19;100019.69;7403792;19;1853;-57
2022/09/16 10:23:14;;;;;;;;;;;;;;;25.12;57.07;100007.63;7402933;19;1647;-57
2022/09/16 10:25:43;;;;;;;;;;;;;;;25.08;57.11;100013.63;7402636;19;1666;-67
2022/09/16 10:28:20;;;;;;;;;;;;;;;25.10;57.03;100014.28;7403823;19;1303;-67
2022/09/16 10:30:50;;;;;;;;;;;;;;;25.00;57.41;100026.25;7404424;19;1089;-67
2022/09/16 10:33:24;;;;;;;;;;;;;;;25.02;56.94;100024.19;7404042;19;1372;-67
2022/09/16 10:35:56;;;;;;;;;;;;;;;25.07;56.81;100036.28;7404512;19;1245;-56
2022/09/16 10:38:26;;;;;;;;;;;;;;;25.09;56.99;100029.69;7404873;19;1644;-57
2022/09/16 10:40:56;;;;;;;;;;;;;;;25.07;56.74;100020.06;7399984;19;1853;-57
2022/09/16 10:43:26;;;;;;;;;;;;;;;25.04;56.95;100020.47;7404132;19;1563;-57
2022/09/16 10:45:55;;;;;;;;;;;;;;;25.05;56.83;100031.09;7403296;19;1592;-57
2022/09/16 10:48:28;;;;;;;;;;;;;;;25.02;56.84;100013.38;7403328;19;975;-57
2022/09/16 10:50:57;;;;;;;;;;;;;;;25.05;56.79;100001.34;7404657;19;972;-57
2022/09/16 10:53:29;;;;;;;;;;;;;;;25.07;56.53;100006.53;7401689;19;1799;-57
2022/09/16 10:55:58;;;;;;;;;;;;;;;25.06;56.88;100008.41;7404124;19;1690;-57
2022/09/16 10:58:27;;;;;;;;;;;;;;;25.04;56.51;99991.53;7401920;19;1772;-57
2022/09/16 11:01:03;;;;;;;;;;;;;;;25.07;56.84;99996.56;7403173;19;1856;-57
2022/09/16 11:03:56;;;;;;;;;;;;;;;25.08;56.59;100005.53;7401425;19;1567;-57
2022/09/16 11:06:30;;;;;;;;;;;;;;;25.07;56.65;99993.00;7403240;19;995;-56
2022/09/16 11:09:04;;;;;;;;;;;;;;;25.06;56.47;99996.75;7400744;19;1701;-57
2022/09/16 11:11:48;;;;;;;;;;;;;;;25.08;56.53;99979.28;7403098;19;1633;-57
2022/09/16 11:14:21;;;;;;;;;;;;;;;25.02;56.67;99970.09;7406433;19;1638;-56
2022/09/16 11:17:10;;;;;;;;;;;;;;;25.08;56.38;99973.88;7409696;19;1599;-56
2022/09/16 11:19:49;;;;;;;;;;;;;;;25.10;56.57;99982.66;7404686;19;1405;-56
2022/09/16 11:22:25;;;;;;;;;;;;;;;25.09;56.55;99980.13;7405744;19;1863;-57
2022/09/16 11:25:08;;;;;;;;;;;;;;;25.11;56.64;99988.88;7408900;19;1550;-57
2022/09/16 11:27:44;;;;;;;;;;;;;;;25.10;56.70;99992.63;7408384;19;1544;-67
2022/09/16 11:30:14;;;;;;;;;;;;;;;25.10;56.52;99965.59;7409153;19;980;-67
2022/09/16 11:33:03;;;;;;;;;;;;;;;25.14;56.42;99977.69;7409050;19;1820;-67
2022/09/16 11:35:39;;;;;;;;;;;;;;;25.14;56.60;99969.56;7405718;19;1734;-66
2022/09/16 11:38:13;;;;;;;;;;;;;;;25.06;56.87;99965.13;7409638;19;1536;-67
2022/09/16 11:40:47;;;;;;;;;;;;;;;25.07;56.61;99949.72;7409153;19;1849;-56
2022/09/16 11:43:24;;;;;;;;;;;;;;;25.07;56.66;99968.66;7408542;19;1650;-56
2022/09/16 11:45:57;;;;;;;;;;;;;;;25.12;56.32;99950.00;7407768;19;1254;-56
2022/09/16 11:48:34;;;;;;;;;;;;;;;25.16;56.38;99959.38;7409926;19;1595;-57
2022/09/16 11:51:08;;;;;;;;;;;;;;;25.11;56.28;99948.31;7409933;19;1017;-57
2022/09/16 11:53:55;;;;;;;;;;;;;;;25.17;56.48;99956.50;7409844;19;967;-56
2022/09/16 11:56:30;;;;;;;;;;;;;;;25.14;56.48;99935.22;7408538;19;1863;-67
2022/09/16 11:59:01;;;;;;;;;;;;;;;25.15;56.42;99952.31;7408650;19;1121;-66
2022/09/16 12:01:32;;;;;;;;;;;;;;;25.11;56.32;99941.03;7406781;19;1860;-56
2022/09/16 12:04:02;;;;;;;;;;;;;;;25.12;56.57;99920.22;7408721;19;1426;-56
2022/09/16 12:06:38;;;;;;;;;;;;;;;25.19;56.33;99946.31;7410055;19;991;-56
2022/09/16 12:09:08;;;;;;;;;;;;;;;25.18;56.45;99932.97;7404879;19;1725;-56
2022/09/16 12:11:38;;;;;;;;;;;;;;;25.16;56.62;99922.34;7409386;19;1571;-56
2022/09/16 12:14:12;;;;;;;;;;;;;;;25.13;56.78;99919.22;7408691;19;1630;-57
2022/09/16 12:16:44;;;;;;;;;;;;;;;25.16;56.75;99935.03;7407427;19;1379;-55
2022/09/16 12:19:17;;;;;;;;;;;;;;;25.12;56.85;99941.88;7405248;19;1161;-56
2022/09/16 12:21:50;;;;;;;;;;;;;;;25.12;56.85;99925.66;7406816;19;1846;-67
2022/09/16 12:24:22;;;;;;;;;;;;;;;25.13;56.93;99938.16;7407298;19;1333;-56
2022/09/16 12:26:53;;;;;;;;;;;;;;;25.15;56.55;99930.69;7406002;19;1626;-56
2022/09/16 12:29:25;;;;;;;;;;;;;;;25.15;56.66;99926.09;7409124;19;940;-56
2022/09/16 12:31:55;;;;;;;;;;;;;;;25.10;56.90;99919.59;7407958;19;1567;-56
2022/09/16 12:34:25;;;;;;;;;;;;;;;25.07;56.93;99911.84;7406451;19;1540;-56
2022/09/16 12:37:01;;;;;;;;;;;;;;;25.11;56.79;99915.84;7406713;19;1048;-66
2022/09/16 12:39:29;;;;;;;;;;;;;;;25.08;56.87;99906.25;7405985;19;1646;-66
2022/09/16 12:42:11;;;;;;;;;;;;;;;25.05;56.79;99913.91;7406967;19;1857;-67
2022/09/16 12:45:03;;;;;;;;;;;;;;;25.02;56.87;99926.81;7405416;19;1572;-67
2022/09/16 12:47:42;;;;;;;;;;;;;;;24.99;57.30;99916.41;7403992;19;1751;-67
2022/09/16 12:50:25;;;;;;;;;;;;;;;24.97;57.33;99915.75;7406940;19;1562;-67
2022/09/16 12:53:07;;;;;;;;;;;;;;;24.97;57.25;99921.16;7406606;19;1722;-57
2022/09/16 12:55:47;;;;;;;;;;;;;;;24.99;57.20;99935.34;7407692;19;1614;-67
2022/09/16 12:58:30;;;;;;;;;;;;;;;24.95;57.23;99925.94;7407917;19;1531;-56
2022/09/16 13:01:05;;;;;;;;;;;;;;;24.98;57.23;99936.34;7402590;19;1834;-63
2022/09/16 13:03:35;;;;;;;;;;;;;;;24.92;57.38;99926.31;7405255;19;1622;-57
2022/09/16 13:06:05;;;;;;;;;;;;;;;24.95;57.33;99936.75;7408112;19;937;-57
2022/09/16 13:08:37;;;;;;;;;;;;;;;24.97;57.51;99950.09;7404709;19;1659;-67
2022/09/16 13:11:07;;;;;;;;;;;;;;;24.93;57.47;99928.00;7405474;19;1630;-66
2022/09/16 13:13:37;;;;;;;;;;;;;;;24.94;57.39;99936.94;7405512;19;1555;-67
2022/09/16 13:16:07;;;;;;;;;;;;;;;24.95;57.30;99949.44;7403894;19;1551;-57